Time;durP1;ratioP1;P1;durP2;ratioP2;P2;SDS_P1;SDS_P2;PMS_P1;PMS_P2;Temp;Humidity;BMP_temperature;BMP_pressure;BME280_temperature;BME280_humidity;BME280_pressure;Samples;Min_cycle;Max_cycle;Signal;HPM_P1;HPM_P2
2023/02/08 00:00:14;;;;;;;18.98;11.68;;;;;;;1.23;73.41;100298.50;4956661;28;20073;-69
2023/02/08 00:02:40;;;;;;;18.98;11.13;;;;;;;0.96;73.09;100298.38;4969664;28;20108;-70
2023/02/08 00:05:05;;;;;;;19.05;11.13;;;;;;;0.49;72.64;100245.91;4956529;28;20066;-69
2023/02/08 00:07:31;;;;;;;15.77;9.75;;;;;;;0.71;73.73;100305.91;4960181;28;20116;-70
2023/02/08 00:09:56;;;;;;;20.75;10.57;;;;;;;0.71;74.07;100315.28;4974245;28;20589;-69
2023/02/08 00:12:22;;;;;;;19.83;11.10;;;;;;;0.53;73.17;100270.53;4968461;28;20042;-69
2023/02/08 00:14:47;;;;;;;21.90;11.40;;;;;;;0.60;73.73;100314.75;4972414;28;20378;-70
2023/02/08 00:17:13;;;;;;;17.63;10.57;;;;;;;0.55;73.89;100320.00;4976189;28;20188;-68
2023/02/08 00:19:38;;;;;;;17.05;10.88;;;;;;;0.75;73.48;100322.88;4963112;28;20715;-70
2023/02/08 00:22:04;;;;;;;24.77;12.27;;;;;;;0.69;73.62;100322.19;4981108;28;20641;-70
2023/02/08 00:24:29;;;;;;;22.70;11.55;;;;;;;0.84;73.52;100321.78;4971772;28;20529;-70
2023/02/08 00:26:55;;;;;;;21.95;12.45;;;;;;;0.84;73.46;100329.47;4973047;28;20034;-70
2023/02/08 00:29:20;;;;;;;20.70;11.82;;;;;;;0.69;73.57;100314.50;4970925;28;20507;-69
2023/02/08 00:31:45;;;;;;;21.75;12.93;;;;;;;0.84;73.23;100326.06;4960055;28;20470;-69
2023/02/08 00:34:11;;;;;;;19.60;11.50;;;;;;;0.63;73.59;100320.63;4955468;28;20033;-70
2023/02/08 00:36:36;;;;;;;19.80;12.52;;;;;;;0.66;73.55;100320.56;4963345;28;20139;-68
2023/02/08 00:39:02;;;;;;;19.92;11.73;;;;;;;0.67;73.15;100317.09;4957393;28;20206;-68
2023/02/08 00:41:27;;;;;;;20.92;12.60;;;;;;;0.75;73.21;100322.88;4973326;28;20178;-70
2023/02/08 00:43:53;;;;;;;22.73;12.88;;;;;;;0.75;72.80;100324.59;4971246;28;20571;-68
2023/02/08 00:46:19;;;;;;;20.65;11.73;;;;;;;0.44;73.38;100286.13;4980902;28;20034;-68
2023/02/08 00:48:45;;;;;;;20.67;11.68;;;;;;;0.67;72.97;100318.81;4960567;28;20053;-69
2023/02/08 00:51:15;;;;;;;19.90;11.38;;;;;;;0.60;73.84;100333.50;4974653;28;20042;-71
2023/02/08 00:53:43;;;;;;;20.55;11.45;;;;;;;0.50;73.35;100325.22;4982252;28;20118;-69
2023/02/08 00:56:10;;;;;;;21.10;11.73;;;;;;;0.42;74.51;100327.16;4976840;28;20037;-69
2023/02/08 00:58:36;;;;;;;19.95;11.73;;;;;;;0.35;74.95;100329.00;4968433;28;20027;-67
2023/02/08 01:01:02;;;;;;;17.75;11.02;;;;;;;-0.03;75.99;100278.78;4972228;28;20666;-69
2023/02/08 01:03:27;;;;;;;18.85;11.68;;;;;;;0.32;75.86;100318.84;4959783;28;20062;-70
2023/02/08 01:05:53;;;;;;;19.58;11.52;;;;;;;0.44;77.25;100337.31;4983050;28;20030;-70
2023/02/08 01:08:20;;;;;;;18.92;11.30;;;;;;;0.50;78.05;100325.22;4967510;28;20085;-73
2023/02/08 01:10:46;;;;;;;21.25;11.65;;;;;;;0.50;77.57;100324.41;4967465;28;20030;-71
2023/02/08 01:13:11;;;;;;;20.40;11.70;;;;;;;0.49;77.34;100326.13;4957005;28;20166;-69
2023/02/08 01:15:37;;;;;;;17.98;10.65;;;;;;;0.46;78.20;100305.72;4954396;28;20068;-68
2023/02/08 01:18:03;;;;;;;17.40;10.82;;;;;;;0.22;78.18;100278.16;4961349;28;20117;-70
2023/02/08 01:20:29;;;;;;;20.25;10.60;;;;;;;0.30;77.60;100300.13;4977860;28;20124;-69
2023/02/08 01:22:54;;;;;;;16.65;10.55;;;;;;;-0.08;77.34;100270.38;4978860;28;20045;-70
2023/02/08 01:25:20;;;;;;;21.88;10.65;;;;;;;0.29;77.18;100339.41;4979303;28;20034;-67
2023/02/08 01:27:45;;;;;;;18.13;10.15;;;;;;;0.13;77.76;100284.38;4973024;28;20038;-70
2023/02/08 01:30:11;;;;;;;15.52;9.88;;;;;;;0.40;76.93;100336.56;4956781;28;20132;-69
2023/02/08 01:32:37;;;;;;;17.85;10.50;;;;;;;0.34;77.24;100324.75;4974923;28;20058;-69
2023/02/08 01:35:02;;;;;;;18.92;11.88;;;;;;;0.31;77.69;100345.31;4974079;28;20121;-69
2023/02/08 01:37:28;;;;;;;20.13;11.60;;;;;;;0.21;77.61;100338.75;4975854;28;20155;-70
2023/02/08 01:39:53;;;;;;;23.70;11.45;;;;;;;0.34;76.62;100334.16;4967946;28;20061;-68
2023/02/08 01:42:19;;;;;;;18.60;10.50;;;;;;;0.30;77.04;100324.88;4995411;28;20157;-69
2023/02/08 01:45:19;;;;;;;17.40;10.57;;;;;;;0.29;76.48;100331.72;4979314;28;20022;-69
2023/02/08 01:47:47;;;;;;;18.63;9.98;;;;;;;0.24;76.55;100325.03;4963723;28;20761;-68
2023/02/08 01:50:13;;;;;;;18.70;10.57;;;;;;;-0.09;76.87;100273.78;4965092;28;20725;-67
2023/02/08 01:52:39;;;;;;;20.15;10.18;;;;;;;0.15;76.83;100324.38;4951713;28;20046;-70
2023/02/08 01:55:22;;;;;;;22.92;11.27;;;;;;;0.10;77.14;100322.81;4979103;28;20033;-72
2023/02/08 01:57:51;;;;;;;20.55;10.20;;;;;;;0.21;76.51;100325.13;4979647;28;20046;-67
2023/02/08 02:00:22;;;;;;;18.48;10.10;;;;;;;0.22;76.52;100321.66;4968875;28;20042;-67
2023/02/08 02:02:52;;;;;;;20.92;11.15;;;;;;;0.09;76.93;100321.13;4976215;28;20030;-67
2023/02/08 02:05:19;;;;;;;18.88;10.35;;;;;;;0.10;76.61;100326.19;4972766;28;20490;-67
2023/02/08 02:07:44;;;;;;;19.42;11.38;;;;;;;0.04;76.20;100320.38;4976325;28;20065;-71
2023/02/08 02:10:14;;;;;;;20.30;10.43;;;;;;;-0.09;77.23;100304.47;5009456;28;20120;-69
2023/02/08 02:12:39;;;;;;;;;;;;;;;0.00;76.88;100324.75;4974351;28;20042;-68
2023/02/08 02:15:06;;;;;;;15.45;9.43;;;;;;;0.05;76.11;100329.75;4978668;28;19971;-69
2023/02/08 02:17:31;;;;;;;15.35;9.70;;;;;;;-0.20;77.05;100315.00;4970243;28;20034;-69
2023/02/08 02:20:13;;;;;;;17.25;10.65;;;;;;;-0.08;76.74;100316.41;4960607;28;20022;-70
2023/02/08 02:22:56;;;;;;;20.92;10.65;;;;;;;-0.23;76.59;100335.50;4958149;28;20034;-69
2023/02/08 02:25:40;;;;;;;21.95;11.23;;;;;;;-0.43;77.34;100285.66;4975987;28;20038;-70
2023/02/08 02:28:24;;;;;;;21.27;11.27;;;;;;;-0.31;77.93;100325.44;4976824;28;20236;-69
2023/02/08 02:31:29;;;;;;;19.25;10.45;;;;;;;-0.76;78.03;100214.88;4979569;28;20038;-66
2023/02/08 02:34:12;;;;;;;20.90;10.32;;;;;;;-0.24;77.72;100319.34;4974962;28;20046;-70
2023/02/08 02:36:53;;;;;;;17.90;10.73;;;;;;;-0.49;77.82;100274.75;4945629;28;20489;-68
2023/02/08 02:39:47;;;;;;;17.48;11.07;;;;;;;-0.37;77.59;100324.75;4970854;28;20192;-69
2023/02/08 02:45:02;;;;;;;;;;;;;;;-0.37;78.46;100327.28;4959207;28;20057;-70
2023/02/08 02:48:09;;;;;;;16.73;9.80;;;;;;;-0.34;79.01;100317.00;4967550;28;19922;-70
2023/02/08 02:50:42;;;;;;;18.13;10.35;;;;;;;-0.36;79.03;100326.44;4968553;28;20671;-70
2023/02/08 02:53:16;;;;;;;20.00;10.85;;;;;;;-0.30;78.19;100308.38;4956778;28;20073;-68
2023/02/08 02:55:46;;;;;;;16.58;9.77;;;;;;;-0.25;78.42;100322.75;4972608;28;20039;-70
2023/02/08 02:58:15;;;;;;;19.45;9.85;;;;;;;-0.28;78.03;100317.69;4966738;28;20129;-70
2023/02/08 03:00:41;;;;;;;18.13;10.30;;;;;;;-0.29;79.12;100310.91;4958870;28;20744;-70
2023/02/08 03:03:14;;;;;;;16.75;10.13;;;;;;;-0.37;79.27;100310.22;4963288;28;20027;-70
2023/02/08 03:05:39;;;;;;;18.67;9.77;;;;;;;-0.36;79.96;100321.31;4963584;28;20680;-69
2023/02/08 03:08:07;;;;;;;16.90;10.68;;;;;;;-0.72;79.84;100268.41;4958902;28;20026;-71
2023/02/08 03:10:42;;;;;;;16.83;10.15;;;;;;;-0.56;80.16;100314.09;4978287;28;20038;-71
2023/02/08 03:13:17;;;;;;;18.35;10.30;;;;;;;-0.90;78.63;100264.50;4981005;28;20114;-71
2023/02/08 03:15:56;;;;;;;20.02;10.25;;;;;;;-0.59;79.50;100320.09;4977494;28;20057;-71
2023/02/08 03:18:36;;;;;;;19.42;9.88;;;;;;;-0.55;79.07;100324.25;4970636;28;20117;-71
2023/02/08 03:21:19;;;;;;;18.33;9.75;;;;;;;-0.46;79.46;100316.38;4970309;28;20022;-70
2023/02/08 03:23:55;;;;;;;18.35;9.85;;;;;;;-0.52;79.14;100313.13;4976976;28;20450;-69
2023/02/08 03:26:52;;;;;;;16.38;9.85;;;;;;;-0.64;79.99;100309.97;4976693;28;20038;-71
2023/02/08 03:29:56;;;;;;;20.15;10.90;;;;;;;-0.67;79.75;100312.59;4976924;28;20023;-69
2023/02/08 03:32:47;;;;;;;15.55;9.40;;;;;;;-0.61;81.15;100307.34;4974834;28;20050;-71
2023/02/08 03:35:19;;;;;;;17.70;9.90;;;;;;;-0.68;79.76;100310.06;4989572;28;20038;-68
2023/02/08 03:37:59;;;;;;;16.80;9.75;;;;;;;-0.70;79.79;100316.91;4981250;28;20106;-71
2023/02/08 03:40:38;;;;;;;16.30;9.45;;;;;;;-0.59;79.97;100322.63;4973799;28;20097;-71
2023/02/08 03:43:22;;;;;;;17.75;10.15;;;;;;;-0.95;80.60;100258.66;4979155;28;20030;-71
2023/02/08 03:45:59;;;;;;;16.30;8.80;;;;;;;-0.80;79.84;100306.06;4965986;28;20035;-68
2023/02/08 03:48:25;;;;;;;17.98;10.27;;;;;;;-0.61;80.08;100319.28;4980667;28;20058;-75
2023/02/08 03:50:52;;;;;;;18.05;9.75;;;;;;;-0.56;79.65;100312.34;4981763;28;20034;-69
2023/02/08 03:53:20;;;;;;;16.13;9.82;;;;;;;-0.62;80.18;100305.66;4988046;28;20136;-71
2023/02/08 03:55:48;;;;;;;15.43;10.15;;;;;;;-0.64;80.63;100309.97;4962226;28;20038;-69
2023/02/08 03:58:22;;;;;;;16.58;9.98;;;;;;;-0.67;79.84;100310.03;4974052;28;20440;-73
2023/02/08 04:01:13;;;;;;;17.70;10.38;;;;;;;-0.73;80.67;100292.28;4980270;28;20027;-69
2023/02/08 04:03:39;;;;;;;17.05;9.57;;;;;;;-1.08;81.07;100254.69;4974006;28;20108;-70
2023/02/08 04:06:05;;;;;;;16.20;9.63;;;;;;;-1.05;81.04;100258.03;4972493;28;20061;-71
2023/02/08 04:08:30;;;;;;;17.15;9.98;;;;;;;-0.98;81.33;100300.44;4965272;28;20038;-73
2023/02/08 04:10:57;;;;;;;17.15;9.70;;;;;;;-0.90;82.13;100305.38;4981354;28;20030;-70
2023/02/08 04:13:22;;;;;;;20.15;10.32;;;;;;;-0.93;81.86;100300.34;4964973;28;20048;-70
2023/02/08 04:15:47;;;;;;;17.67;10.15;;;;;;;-0.97;82.55;100291.06;4985030;28;20061;-71
2023/02/08 04:18:13;;;;;;;15.80;9.93;;;;;;;-0.87;82.29;100294.28;4981206;28;20031;-70
2023/02/08 04:20:38;;;;;;;19.65;10.07;;;;;;;-1.02;82.89;100296.25;4977719;28;20110;-70
2023/02/08 04:23:03;;;;;;;16.08;9.95;;;;;;;-0.99;81.14;100301.31;4979063;28;20121;-68
2023/02/08 04:25:29;;;;;;;18.00;10.15;;;;;;;-0.96;81.64;100292.75;4974912;28;20046;-70
2023/02/08 04:27:54;;;;;;;18.85;9.77;;;;;;;-0.84;81.83;100292.50;4980358;28;20042;-70
2023/02/08 04:30:20;;;;;;;16.50;9.80;;;;;;;-0.89;80.42;100288.38;4981197;28;20034;-71
2023/02/08 04:32:45;;;;;;;17.85;9.52;;;;;;;-0.83;80.25;100295.88;4956366;28;20406;-72
2023/02/08 04:35:10;;;;;;;18.45;10.38;;;;;;;-0.90;80.56;100296.88;4980876;28;20042;-70
2023/02/08 04:37:36;;;;;;;22.38;11.68;;;;;;;-1.36;79.99;100222.06;4963263;28;20034;-69
2023/02/08 04:40:02;;;;;;;18.38;10.25;;;;;;;-0.97;80.29;100291.06;4959175;28;20049;-70
2023/02/08 04:42:27;;;;;;;17.90;10.52;;;;;;;-1.02;81.14;100286.06;4961373;28;20058;-70
2023/02/08 04:44:53;;;;;;;17.73;10.07;;;;;;;-1.01;82.23;100295.38;4974900;28;20790;-70
2023/02/08 04:47:18;;;;;;;16.10;9.35;;;;;;;-1.03;81.20;100291.19;4954878;28;20045;-67
2023/02/08 04:49:44;;;;;;;17.00;10.25;;;;;;;-1.07;81.26;100290.41;4967816;28;20486;-68
2023/02/08 04:52:09;;;;;;;17.17;9.45;;;;;;;-1.12;81.59;100283.72;4977398;28;20133;-71
2023/02/08 04:54:34;;;;;;;17.27;10.38;;;;;;;-1.14;82.38;100283.72;4964787;28;20064;-72
2023/02/08 04:57:00;;;;;;;18.70;10.10;;;;;;;-1.06;82.29;100293.78;4956621;28;20747;-72
2023/02/08 04:59:25;;;;;;;15.85;9.90;;;;;;;-1.10;82.44;100276.84;4963096;28;20502;-70
2023/02/08 05:01:51;;;;;;;22.45;10.75;;;;;;;-1.06;81.56;100279.34;4961018;28;20392;-74
2023/02/08 05:04:16;;;;;;;17.67;10.05;;;;;;;-1.09;82.21;100276.81;4978323;28;20045;-72
2023/02/08 05:06:41;;;;;;;19.15;10.55;;;;;;;-1.00;82.55;100289.41;4962921;28;20452;-70
2023/02/08 05:09:08;;;;;;;18.63;10.57;;;;;;;-1.08;83.35;100281.03;4969009;28;20031;-70
2023/02/08 05:11:34;;;;;;;17.83;10.60;;;;;;;-1.41;82.44;100224.69;4961015;28;20101;-71
2023/02/08 05:14:00;;;;;;;18.80;10.98;;;;;;;-0.98;81.22;100285.09;4967294;28;20038;-70
2023/02/08 05:16:25;;;;;;;16.83;10.18;;;;;;;-1.44;82.08;100218.78;4960125;28;20695;-71
2023/02/08 05:18:51;;;;;;;17.45;10.10;;;;;;;-1.04;82.07;100281.81;4977939;28;20513;-71
2023/02/08 05:21:16;;;;;;;18.33;10.55;;;;;;;-1.09;81.74;100271.72;4975839;28;20082;-70
2023/02/08 05:23:41;;;;;;;18.48;10.30;;;;;;;-1.17;81.13;100276.13;4977853;28;20026;-70
2023/02/08 05:26:10;;;;;;;19.95;11.18;;;;;;;-1.32;81.98;100278.97;4972459;28;20737;-70
2023/02/08 05:28:35;;;;;;;17.92;10.48;;;;;;;-1.38;82.64;100275.66;4994426;28;20031;-71
2023/02/08 05:31:30;;;;;;;18.73;10.70;;;;;;;-1.11;81.35;100280.25;4978023;28;21237;-70
2023/02/08 05:33:55;;;;;;;20.42;10.23;;;;;;;-1.16;81.10;100278.66;4978838;28;20042;-71
2023/02/08 05:36:22;;;;;;;17.10;10.68;;;;;;;-1.41;80.93;100280.00;4966044;28;20194;-70
2023/02/08 05:38:47;;;;;;;21.08;11.30;;;;;;;-1.43;81.68;100279.19;4976698;28;20130;-70
2023/02/08 05:41:13;;;;;;;16.58;10.38;;;;;;;-1.38;81.58;100292.69;4959841;28;20043;-71
2023/02/08 05:43:38;;;;;;;18.13;11.20;;;;;;;-1.42;81.45;100288.53;4978677;28;20038;-71
2023/02/08 05:46:04;;;;;;;22.35;11.75;;;;;;;-1.33;81.60;100302.81;4978151;28;20855;-69
2023/02/08 05:48:30;;;;;;;24.30;12.32;;;;;;;-1.31;81.06;100294.28;4974059;28;20611;-71
2023/02/08 05:50:56;;;;;;;20.02;12.18;;;;;;;-1.44;81.08;100295.34;4965069;28;20034;-70
2023/02/08 05:53:22;;;;;;;22.20;12.65;;;;;;;-1.25;80.80;100309.47;4963681;28;20033;-72
2023/02/08 05:55:47;;;;;;;23.63;12.82;;;;;;;-1.37;80.66;100279.91;4962279;28;20046;-71
2023/02/08 05:58:14;;;;;;;25.05;12.85;;;;;;;-1.17;79.81;100309.31;4964614;28;20034;-69
2023/02/08 06:00:39;;;;;;;20.65;12.68;;;;;;;-1.38;80.24;100293.53;4980292;28;20035;-71
2023/02/08 06:03:05;;;;;;;23.95;13.20;;;;;;;-1.75;80.75;100250.00;4972446;28;20374;-71
2023/02/08 06:05:31;;;;;;;24.33;12.27;;;;;;;-1.24;79.64;100323.06;4976713;28;20523;-73
2023/02/08 06:07:56;;;;;;;21.33;12.80;;;;;;;-1.64;79.81;100265.13;4966233;28;20045;-72
2023/02/08 06:10:21;;;;;;;23.48;13.73;;;;;;;-1.27;80.18;100328.25;4968498;28;20034;-69
2023/02/08 06:12:47;;;;;;;19.73;12.43;;;;;;;-1.48;79.33;100263.09;4970469;28;20149;-70
2023/02/08 06:15:12;;;;;;;27.05;12.27;;;;;;;-1.19;79.87;100321.25;4968570;28;20119;-71
2023/02/08 06:17:38;;;;;;;22.63;13.65;;;;;;;-1.17;79.44;100325.50;4952270;28;20030;-71
2023/02/08 06:20:04;;;;;;;22.30;12.57;;;;;;;-1.29;80.09;100335.91;4967633;28;20046;-68
2023/02/08 06:22:29;;;;;;;21.48;13.70;;;;;;;-1.27;80.99;100333.34;4955526;28;20030;-68
2023/02/08 06:24:54;;;;;;;24.38;13.98;;;;;;;-1.14;80.66;100336.50;4974263;28;20144;-70
2023/02/08 06:27:20;;;;;;;21.42;12.75;;;;;;;-1.15;79.99;100333.13;4967814;28;20482;-72
2023/02/08 06:29:45;;;;;;;22.40;13.68;;;;;;;-1.08;79.40;100337.22;4957969;28;21268;-71
2023/02/08 06:32:11;;;;;;;20.98;12.73;;;;;;;-1.08;79.18;100333.84;4972147;28;20894;-71
2023/02/08 06:34:36;;;;;;;25.00;13.40;;;;;;;-1.08;79.63;100332.09;4955920;28;20509;-73
2023/02/08 06:37:04;;;;;;;28.25;14.77;;;;;;;-1.24;80.37;100323.91;4962741;28;20353;-70
2023/02/08 06:39:30;;;;;;;25.63;15.15;;;;;;;-1.12;79.88;100330.50;4976093;28;21381;-70
2023/02/08 06:41:56;;;;;;;23.65;16.02;;;;;;;-1.20;79.53;100315.31;4958015;28;20115;-70
2023/02/08 06:44:22;;;;;;;26.27;16.90;;;;;;;-1.01;80.40;100320.91;4989442;28;20022;-70
2023/02/08 06:46:47;;;;;;;28.23;16.80;;;;;;;-1.33;79.23;100277.28;4953789;28;20041;-68
2023/02/08 06:49:13;;;;;;;33.58;18.60;;;;;;;-1.10;79.96;100326.19;4966205;28;20070;-73
2023/02/08 06:51:39;;;;;;;27.63;17.85;;;;;;;-1.05;79.30;100323.56;4966232;28;20493;-69
2023/02/08 06:54:04;;;;;;;26.27;14.95;;;;;;;-1.14;79.64;100327.13;4950636;28;20035;-70
2023/02/08 06:56:30;;;;;;;22.83;14.68;;;;;;;-1.47;80.23;100270.75;4955024;28;20775;-70
2023/02/08 06:58:56;;;;;;;23.67;13.05;;;;;;;-1.17;80.58;100311.88;4951727;28;20031;-71
2023/02/08 07:01:21;;;;;;;23.67;15.95;;;;;;;-1.04;80.21;100320.13;4972005;28;20458;-70
2023/02/08 07:03:47;;;;;;;41.13;19.95;;;;;;;-1.01;78.88;100327.75;4966327;28;20039;-70
2023/02/08 07:06:14;;;;;;;32.20;19.33;;;;;;;-0.97;78.75;100331.91;4963588;28;20065;-71
2023/02/08 07:08:39;;;;;;;32.88;18.92;;;;;;;-0.98;79.89;100328.53;4960545;28;20462;-71
2023/02/08 07:11:07;;;;;;;29.55;16.15;;;;;;;-0.99;79.68;100329.41;4964160;28;20030;-71
2023/02/08 07:13:32;;;;;;;26.65;14.88;;;;;;;-1.14;79.97;100331.41;4973668;28;20042;-70
2023/02/08 07:15:58;;;;;;;25.10;15.30;;;;;;;-1.03;78.99;100337.16;4962079;28;20405;-71
2023/02/08 07:18:23;;;;;;;24.52;13.85;;;;;;;-1.02;79.27;100326.06;4963190;28;20118;-71
2023/02/08 07:20:48;;;;;;;23.30;15.00;;;;;;;-1.01;78.90;100336.22;4952961;28;20041;-69
2023/02/08 07:23:14;;;;;;;24.15;14.43;;;;;;;-1.03;80.51;100334.59;4983885;28;20310;-71
2023/02/08 07:25:39;;;;;;;25.17;13.95;;;;;;;-1.13;80.82;100327.97;4975178;28;20129;-70
2023/02/08 07:28:05;;;;;;;31.25;14.50;;;;;;;-1.84;80.76;100230.59;4985989;28;20062;-69
2023/02/08 07:30:30;;;;;;;23.75;13.23;;;;;;;-1.16;80.80;100328.88;4979093;28;20034;-70
2023/02/08 07:32:55;;;;;;;22.83;12.95;;;;;;;-1.06;81.40;100325.28;4985187;28;20544;-70
2023/02/08 07:35:21;;;;;;;23.70;13.00;;;;;;;-1.19;81.23;100324.69;4959074;28;20098;-68
2023/02/08 07:37:46;;;;;;;26.52;14.65;;;;;;;-1.03;80.99;100330.31;4972614;28;20165;-71
2023/02/08 07:40:12;;;;;;;35.90;19.02;;;;;;;-0.99;80.49;100321.75;4975299;28;20023;-68
2023/02/08 07:42:37;;;;;;;45.85;25.92;;;;;;;-0.90;80.79;100319.88;4954278;28;21085;-70
2023/02/08 07:45:03;;;;;;;52.00;30.23;;;;;;;-1.04;81.41;100309.91;4959608;28;20378;-70
2023/02/08 07:47:34;;;;;;;53.95;29.92;;;;;;;-0.98;81.68;100314.91;4957818;28;20125;-70
2023/02/08 07:49:59;;;;;;;56.10;32.30;;;;;;;-1.21;82.47;100317.91;4967525;28;20027;-74
2023/02/08 07:52:25;;;;;;;53.80;28.08;;;;;;;-1.19;84.09;100321.25;4975116;28;20034;-70
2023/02/08 07:54:50;;;;;;;43.10;21.60;;;;;;;-1.07;83.30;100315.09;4984446;28;20034;-69
2023/02/08 07:57:19;;;;;;;31.50;18.52;;;;;;;-0.97;82.40;100314.03;4982417;28;20031;-72
2023/02/08 07:59:46;;;;;;;32.47;17.23;;;;;;;-0.83;82.41;100314.59;4963890;28;20030;-72
2023/02/08 08:02:13;;;;;;;29.92;16.45;;;;;;;-0.74;82.34;100325.53;4977318;28;20054;-70
2023/02/08 08:04:39;;;;;;;29.88;16.77;;;;;;;-0.71;81.47;100328.00;4965080;28;21645;-69
2023/02/08 08:07:04;;;;;;;24.05;14.80;;;;;;;-1.06;82.05;100269.13;4985737;28;20037;-73
2023/02/08 08:09:29;;;;;;;31.05;15.70;;;;;;;-0.71;82.10;100331.41;4981626;28;20042;-69
2023/02/08 08:11:55;;;;;;;25.38;15.30;;;;;;;-0.66;81.26;100315.97;4981953;28;20034;-70
2023/02/08 08:14:20;;;;;;;29.02;15.40;;;;;;;-0.56;80.74;100314.91;4958494;28;20141;-70
2023/02/08 08:16:46;;;;;;;31.27;15.30;;;;;;;-0.52;81.59;100313.13;4983466;28;20056;-70
